sensor_id;sensor_type;location;lat;lon;timestamp;pressure;altitude;pressure_sealevel;temperature;humidity
11108;BME280;5607;48.302;14.294;2023-03-14T00:02:02;96726.53;;;8.81;97.35
11108;BME280;5607;48.302;14.294;2023-03-14T00:04:48;96727.09;;;8.69;97.95
11108;BME280;5607;48.302;14.294;2023-03-14T00:07:36;96737.34;;;8.70;99.10
11108;BME280;5607;48.302;14.294;2023-03-14T00:10:23;96728.03;;;8.53;99.77
11108;BME280;5607;48.302;14.294;2023-03-14T00:13:10;96752.19;;;8.61;99.64
11108;BME280;5607;48.302;14.294;2023-03-14T00:16:08;96759.78;;;8.71;99.53
11108;BME280;5607;48.302;14.294;2023-03-14T00:18:55;96768.06;;;8.44;100.00
11108;BME280;5607;48.302;14.294;2023-03-14T00:21:42;96790.66;;;8.43;100.00
11108;BME280;5607;48.302;14.294;2023-03-14T00:24:28;96788.91;;;8.35;100.00
11108;BME280;5607;48.302;14.294;2023-03-14T00:27:15;96784.03;;;8.32;100.00
11108;BME280;5607;48.302;14.294;2023-03-14T00:30:04;96786.44;;;8.34;100.00
11108;BME280;5607;48.302;14.294;2023-03-14T00:32:51;96784.63;;;8.43;100.00
11108;BME280;5607;48.302;14.294;2023-03-14T00:35:37;96805.56;;;8.49;100.00
11108;BME280;5607;48.302;14.294;2023-03-14T00:38:24;96859.03;;;8.60;100.00
11108;BME280;5607;48.302;14.294;2023-03-14T00:41:14;96832.91;;;8.45;100.00
11108;BME280;5607;48.302;14.294;2023-03-14T00:44:01;96839.44;;;8.33;100.00
11108;BME280;5607;48.302;14.294;2023-03-14T00:46:47;96834.84;;;8.43;100.00
11108;BME280;5607;48.302;14.294;2023-03-14T00:49:34;96853.38;;;8.48;100.00
11108;BME280;5607;48.302;14.294;2023-03-14T00:52:21;96845.72;;;8.55;100.00
11108;BME280;5607;48.302;14.294;2023-03-14T00:55:09;96857.06;;;8.62;100.00
11108;BME280;5607;48.302;14.294;2023-03-14T00:57:55;96855.66;;;8.51;100.00
11108;BME280;5607;48.302;14.294;2023-03-14T01:00:42;96864.00;;;8.39;100.00
11108;BME280;5607;48.302;14.294;2023-03-14T01:03:29;96880.38;;;8.31;100.00
11108;BME280;5607;48.302;14.294;2023-03-14T01:06:19;96859.91;;;8.28;100.00
11108;BME280;5607;48.302;14.294;2023-03-14T01:09:06;96860.06;;;8.34;100.00
11108;BME280;5607;48.302;14.294;2023-03-14T01:11:52;96872.09;;;8.35;100.00
11108;BME280;5607;48.302;14.294;2023-03-14T01:14:39;96877.63;;;8.41;100.00
11108;BME280;5607;48.302;14.294;2023-03-14T01:17:25;96829.84;;;8.25;100.00
11108;BME280;5607;48.302;14.294;2023-03-14T01:20:13;96835.19;;;8.32;100.00
11108;BME280;5607;48.302;14.294;2023-03-14T01:23:01;96847.56;;;8.38;100.00
11108;BME280;5607;48.302;14.294;2023-03-14T01:25:47;96840.72;;;8.29;100.00
11108;BME280;5607;48.302;14.294;2023-03-14T01:28:34;96837.00;;;8.23;100.00
11108;BME280;5607;48.302;14.294;2023-03-14T01:31:20;96865.59;;;8.40;100.00
11108;BME280;5607;48.302;14.294;2023-03-14T01:34:08;96858.31;;;8.27;100.00
11108;BME280;5607;48.302;14.294;2023-03-14T01:36:55;96847.09;;;8.18;100.00
11108;BME280;5607;48.302;14.294;2023-03-14T01:39:41;96855.38;;;8.22;100.00
11108;BME280;5607;48.302;14.294;2023-03-14T01:42:28;96876.50;;;8.27;100.00
11108;BME280;5607;48.302;14.294;2023-03-14T01:48:50;96888.03;;;8.24;100.00
11108;BME280;5607;48.302;14.294;2023-03-14T01:52:14;96900.22;;;8.24;100.00
11108;BME280;5607;48.302;14.294;2023-03-14T01:55:05;96902.66;;;8.17;100.00
11108;BME280;5607;48.302;14.294;2023-03-14T01:57:58;96896.34;;;8.12;100.00
11108;BME280;5607;48.302;14.294;2023-03-14T02:00:47;96895.88;;;8.08;100.00
11108;BME280;5607;48.302;14.294;2023-03-14T02:03:37;96894.75;;;8.02;100.00
11108;BME280;5607;48.302;14.294;2023-03-14T02:06:31;96901.56;;;8.03;100.00
11108;BME280;5607;48.302;14.294;2023-03-14T02:09:21;96900.25;;;8.07;100.00
11108;BME280;5607;48.302;14.294;2023-03-14T02:12:09;96898.78;;;8.05;100.00
11108;BME280;5607;48.302;14.294;2023-03-14T02:14:57;96884.97;;;8.13;100.00
11108;BME280;5607;48.302;14.294;2023-03-14T02:17:45;96893.44;;;8.15;100.00
11108;BME280;5607;48.302;14.294;2023-03-14T02:23:55;96876.06;;;7.91;100.00
11108;BME280;5607;48.302;14.294;2023-03-14T02:30:02;96899.63;;;7.81;100.00
11108;BME280;5607;48.302;14.294;2023-03-14T02:32:52;96930.00;;;7.72;100.00
11108;BME280;5607;48.302;14.294;2023-03-14T02:35:45;96938.75;;;7.71;100.00
11108;BME280;5607;48.302;14.294;2023-03-14T02:41:28;96958.41;;;7.74;100.00
11108;BME280;5607;48.302;14.294;2023-03-14T02:44:15;96980.97;;;7.73;100.00
11108;BME280;5607;48.302;14.294;2023-03-14T02:47:03;96984.84;;;7.53;100.00
11108;BME280;5607;48.302;14.294;2023-03-14T02:49:53;96993.75;;;7.50;100.00
11108;BME280;5607;48.302;14.294;2023-03-14T02:52:40;96995.34;;;7.43;100.00
11108;BME280;5607;48.302;14.294;2023-03-14T02:55:26;96968.09;;;7.39;100.00
11108;BME280;5607;48.302;14.294;2023-03-14T02:58:13;96959.97;;;7.50;100.00
11108;BME280;5607;48.302;14.294;2023-03-14T03:01:00;96966.97;;;7.50;100.00
11108;BME280;5607;48.302;14.294;2023-03-14T03:03:47;96969.09;;;7.54;100.00
11108;BME280;5607;48.302;14.294;2023-03-14T03:06:33;96961.16;;;7.64;100.00
11108;BME280;5607;48.302;14.294;2023-03-14T03:09:20;96954.81;;;7.67;100.00
11108;BME280;5607;48.302;14.294;2023-03-14T03:12:06;96922.50;;;7.69;100.00
11108;BME280;5607;48.302;14.294;2023-03-14T03:14:53;96924.16;;;7.70;100.00
11108;BME280;5607;48.302;14.294;2023-03-14T03:17:39;96930.47;;;7.76;100.00
11108;BME280;5607;48.302;14.294;2023-03-14T03:20:26;96946.72;;;7.78;100.00
11108;BME280;5607;48.302;14.294;2023-03-14T03:23:12;96950.59;;;7.82;100.00
11108;BME280;5607;48.302;14.294;2023-03-14T03:26:00;96946.53;;;7.88;100.00
11108;BME280;5607;48.302;14.294;2023-03-14T03:28:47;96938.59;;;7.81;100.00
11108;BME280;5607;48.302;14.294;2023-03-14T03:31:33;96953.69;;;7.77;100.00
11108;BME280;5607;48.302;14.294;2023-03-14T03:34:20;96963.94;;;7.79;100.00
11108;BME280;5607;48.302;14.294;2023-03-14T03:37:06;96963.94;;;7.71;100.00
11108;BME280;5607;48.302;14.294;2023-03-14T03:39:53;96983.25;;;7.76;100.00
11108;BME280;5607;48.302;14.294;2023-03-14T03:42:39;96987.66;;;7.84;100.00
11108;BME280;5607;48.302;14.294;2023-03-14T03:45:26;96974.81;;;7.91;100.00
11108;BME280;5607;48.302;14.294;2023-03-14T03:48:13;96977.25;;;8.00;100.00
11108;BME280;5607;48.302;14.294;2023-03-14T03:51:00;96982.59;;;8.07;100.00
11108;BME280;5607;48.302;14.294;2023-03-14T03:53:47;96983.44;;;8.16;100.00
11108;BME280;5607;48.302;14.294;2023-03-14T03:56:33;96964.88;;;8.19;100.00
11108;BME280;5607;48.302;14.294;2023-03-14T03:59:20;96969.13;;;8.28;100.00
11108;BME280;5607;48.302;14.294;2023-03-14T04:02:07;96964.25;;;8.33;100.00
11108;BME280;5607;48.302;14.294;2023-03-14T04:04:54;96958.25;;;8.41;100.00
11108;BME280;5607;48.302;14.294;2023-03-14T04:07:40;96966.50;;;8.60;100.00
11108;BME280;5607;48.302;14.294;2023-03-14T04:10:27;96964.91;;;8.51;100.00
11108;BME280;5607;48.302;14.294;2023-03-14T04:13:13;96965.03;;;8.58;100.00
11108;BME280;5607;48.302;14.294;2023-03-14T04:16:00;96966.84;;;8.57;100.00
11108;BME280;5607;48.302;14.294;2023-03-14T04:18:47;96959.34;;;8.54;100.00
11108;BME280;5607;48.302;14.294;2023-03-14T04:21:33;96956.25;;;8.59;100.00
11108;BME280;5607;48.302;14.294;2023-03-14T04:24:20;96943.06;;;8.60;100.00
11108;BME280;5607;48.302;14.294;2023-03-14T04:27:07;96936.88;;;8.61;100.00
11108;BME280;5607;48.302;14.294;2023-03-14T04:29:53;96952.84;;;8.58;100.00
11108;BME280;5607;48.302;14.294;2023-03-14T04:32:40;96969.41;;;8.66;100.00
11108;BME280;5607;48.302;14.294;2023-03-14T04:35:27;96963.88;;;8.60;100.00
11108;BME280;5607;48.302;14.294;2023-03-14T04:38:13;96965.34;;;8.71;100.00
11108;BME280;5607;48.302;14.294;2023-03-14T04:41:00;96965.47;;;8.78;100.00
11108;BME280;5607;48.302;14.294;2023-03-14T04:43:47;96967.75;;;8.73;100.00
11108;BME280;5607;48.302;14.294;2023-03-14T04:46:34;96971.81;;;8.75;100.00
11108;BME280;5607;48.302;14.294;2023-03-14T04:49:21;96969.69;;;8.79;100.00
11108;BME280;5607;48.302;14.294;2023-03-14T04:52:07;96948.88;;;8.79;100.00
11108;BME280;5607;48.302;14.294;2023-03-14T04:54:55;96962.38;;;8.82;100.00
11108;BME280;5607;48.302;14.294;2023-03-14T04:57:43;96961.22;;;8.85;100.00
11108;BME280;5607;48.302;14.294;2023-03-14T05:00:29;96971.94;;;8.90;100.00
11108;BME280;5607;48.302;14.294;2023-03-14T05:03:17;96977.16;;;8.90;100.00
11108;BME280;5607;48.302;14.294;2023-03-14T05:06:05;96989.34;;;8.89;100.00
11108;BME280;5607;48.302;14.294;2023-03-14T05:08:53;96988.38;;;8.90;100.00
11108;BME280;5607;48.302;14.294;2023-03-14T05:11:39;96992.75;;;8.82;100.00
11108;BME280;5607;48.302;14.294;2023-03-14T05:14:27;96998.13;;;8.88;100.00
11108;BME280;5607;48.302;14.294;2023-03-14T05:17:15;97004.94;;;8.98;100.00
11108;BME280;5607;48.302;14.294;2023-03-14T05:20:02;97016.78;;;9.00;100.00
11108;BME280;5607;48.302;14.294;2023-03-14T05:22:53;97023.78;;;9.00;100.00
11108;BME280;5607;48.302;14.294;2023-03-14T05:25:42;97026.41;;;8.92;100.00
11108;BME280;5607;48.302;14.294;2023-03-14T05:28:29;97037.66;;;8.84;100.00
11108;BME280;5607;48.302;14.294;2023-03-14T05:31:16;97027.28;;;8.76;100.00
11108;BME280;5607;48.302;14.294;2023-03-14T05:34:03;97030.53;;;8.78;100.00
11108;BME280;5607;48.302;14.294;2023-03-14T05:36:49;97021.09;;;8.77;100.00
11108;BME280;5607;48.302;14.294;2023-03-14T05:39:36;97011.50;;;8.69;100.00
11108;BME280;5607;48.302;14.294;2023-03-14T05:42:22;97021.75;;;8.62;100.00
11108;BME280;5607;48.302;14.294;2023-03-14T05:45:09;97014.47;;;8.58;100.00
11108;BME280;5607;48.302;14.294;2023-03-14T05:47:56;97007.13;;;8.61;100.00
11108;BME280;5607;48.302;14.294;2023-03-14T05:50:42;96997.84;;;8.67;100.00
11108;BME280;5607;48.302;14.294;2023-03-14T05:53:29;96991.22;;;8.65;100.00
11108;BME280;5607;48.302;14.294;2023-03-14T05:56:16;96995.91;;;8.61;100.00
11108;BME280;5607;48.302;14.294;2023-03-14T05:59:03;96999.81;;;8.57;100.00
11108;BME280;5607;48.302;14.294;2023-03-14T06:01:49;96990.06;;;8.59;100.00
11108;BME280;5607;48.302;14.294;2023-03-14T06:04:36;96995.44;;;8.66;100.00
11108;BME280;5607;48.302;14.294;2023-03-14T06:07:22;96995.41;;;8.74;100.00
11108;BME280;5607;48.302;14.294;2023-03-14T06:10:09;96990.19;;;8.74;100.00
11108;BME280;5607;48.302;14.294;2023-03-14T06:12:57;96995.75;;;8.71;100.00
11108;BME280;5607;48.302;14.294;2023-03-14T06:15:44;96999.13;;;8.79;100.00
11108;BME280;5607;48.302;14.294;2023-03-14T06:18:31;96990.78;;;8.92;100.00
11108;BME280;5607;48.302;14.294;2023-03-14T06:21:18;96972.91;;;8.89;100.00
11108;BME280;5607;48.302;14.294;2023-03-14T06:24:06;96973.59;;;8.83;100.00
11108;BME280;5607;48.302;14.294;2023-03-14T06:26:52;96952.38;;;8.94;100.00
11108;BME280;5607;48.302;14.294;2023-03-14T06:29:39;96952.81;;;9.06;100.00
11108;BME280;5607;48.302;14.294;2023-03-14T06:32:25;96960.34;;;9.01;100.00
11108;BME280;5607;48.302;14.294;2023-03-14T06:35:12;96939.25;;;9.18;100.00
11108;BME280;5607;48.302;14.294;2023-03-14T06:37:59;96929.75;;;9.03;100.00
11108;BME280;5607;48.302;14.294;2023-03-14T06:40:46;96942.13;;;9.01;100.00
11108;BME280;5607;48.302;14.294;2023-03-14T06:43:33;96935.38;;;8.75;100.00
11108;BME280;5607;48.302;14.294;2023-03-14T06:46:20;96936.47;;;8.89;100.00
11108;BME280;5607;48.302;14.294;2023-03-14T06:49:06;96936.00;;;8.85;100.00
11108;BME280;5607;48.302;14.294;2023-03-14T06:51:53;96961.53;;;8.90;100.00
11108;BME280;5607;48.302;14.294;2023-03-14T06:54:40;96948.88;;;8.79;100.00
11108;BME280;5607;48.302;14.294;2023-03-14T06:57:27;96954.72;;;8.81;100.00
11108;BME280;5607;48.302;14.294;2023-03-14T07:00:14;96938.00;;;8.67;100.00
11108;BME280;5607;48.302;14.294;2023-03-14T07:03:01;96955.72;;;8.72;100.00
11108;BME280;5607;48.302;14.294;2023-03-14T07:05:47;96958.94;;;8.82;100.00
11108;BME280;5607;48.302;14.294;2023-03-14T07:08:34;96953.09;;;8.80;100.00
11108;BME280;5607;48.302;14.294;2023-03-14T07:11:20;96944.97;;;8.83;100.00
11108;BME280;5607;48.302;14.294;2023-03-14T07:14:07;96947.84;;;8.96;100.00
11108;BME280;5607;48.302;14.294;2023-03-14T07:16:54;96940.47;;;9.00;100.00
11108;BME280;5607;48.302;14.294;2023-03-14T07:19:40;96934.31;;;9.01;100.00
11108;BME280;5607;48.302;14.294;2023-03-14T07:22:27;96934.47;;;8.99;100.00
11108;BME280;5607;48.302;14.294;2023-03-14T07:25:13;96913.63;;;9.07;100.00
11108;BME280;5607;48.302;14.294;2023-03-14T07:28:00;96914.88;;;9.20;100.00
11108;BME280;5607;48.302;14.294;2023-03-14T07:30:47;96915.84;;;9.41;100.00
11108;BME280;5607;48.302;14.294;2023-03-14T07:33:34;96928.66;;;9.51;100.00
11108;BME280;5607;48.302;14.294;2023-03-14T07:36:21;96923.50;;;9.43;100.00
11108;BME280;5607;48.302;14.294;2023-03-14T07:39:07;96940.41;;;9.47;100.00
11108;BME280;5607;48.302;14.294;2023-03-14T07:41:54;96939.66;;;9.38;100.00
11108;BME280;5607;48.302;14.294;2023-03-14T07:44:40;96943.38;;;9.44;100.00
11108;BME280;5607;48.302;14.294;2023-03-14T07:47:27;96955.41;;;9.45;100.00
11108;BME280;5607;48.302;14.294;2023-03-14T07:50:13;96960.63;;;9.45;100.00
11108;BME280;5607;48.302;14.294;2023-03-14T07:53:00;96958.28;;;9.50;100.00
11108;BME280;5607;48.302;14.294;2023-03-14T07:55:47;96970.47;;;9.58;100.00
11108;BME280;5607;48.302;14.294;2023-03-14T07:58:34;96968.31;;;9.61;100.00
11108;BME280;5607;48.302;14.294;2023-03-14T08:01:20;96964.28;;;9.59;100.00
11108;BME280;5607;48.302;14.294;2023-03-14T08:04:07;96965.78;;;9.53;100.00
11108;BME280;5607;48.302;14.294;2023-03-14T08:06:53;96960.56;;;9.53;100.00
11108;BME280;5607;48.302;14.294;2023-03-14T08:09:41;96961.25;;;9.47;100.00
11108;BME280;5607;48.302;14.294;2023-03-14T08:12:27;96969.56;;;9.42;100.00
11108;BME280;5607;48.302;14.294;2023-03-14T08:15:14;96979.50;;;9.47;100.00
11108;BME280;5607;48.302;14.294;2023-03-14T08:18:00;96966.47;;;9.47;100.00
11108;BME280;5607;48.302;14.294;2023-03-14T08:20:47;96967.09;;;9.49;100.00
11108;BME280;5607;48.302;14.294;2023-03-14T08:23:34;96969.00;;;9.55;100.00
11108;BME280;5607;48.302;14.294;2023-03-14T08:26:20;96959.28;;;9.49;100.00
11108;BME280;5607;48.302;14.294;2023-03-14T08:29:07;96962.53;;;9.51;100.00
11108;BME280;5607;48.302;14.294;2023-03-14T08:31:54;96959.56;;;9.54;100.00
11108;BME280;5607;48.302;14.294;2023-03-14T08:34:42;96970.19;;;9.53;100.00
11108;BME280;5607;48.302;14.294;2023-03-14T08:37:28;96974.63;;;9.44;100.00
11108;BME280;5607;48.302;14.294;2023-03-14T08:40:16;96973.16;;;9.41;100.00
11108;BME280;5607;48.302;14.294;2023-03-14T08:43:03;96965.72;;;9.38;100.00
11108;BME280;5607;48.302;14.294;2023-03-14T08:45:50;96970.25;;;9.36;100.00
11108;BME280;5607;48.302;14.294;2023-03-14T08:48:36;96957.66;;;9.48;100.00
11108;BME280;5607;48.302;14.294;2023-03-14T08:51:23;96952.31;;;9.41;100.00
11108;BME280;5607;48.302;14.294;2023-03-14T08:54:10;96974.78;;;9.42;100.00
11108;BME280;5607;48.302;14.294;2023-03-14T08:56:57;96970.91;;;9.38;100.00
11108;BME280;5607;48.302;14.294;2023-03-14T08:59:44;96982.28;;;9.46;100.00
11108;BME280;5607;48.302;14.294;2023-03-14T09:02:31;96980.34;;;9.39;100.00
11108;BME280;5607;48.302;14.294;2023-03-14T09:05:17;96979.13;;;9.50;100.00
11108;BME280;5607;48.302;14.294;2023-03-14T09:08:04;96968.59;;;9.43;100.00
11108;BME280;5607;48.302;14.294;2023-03-14T09:10:51;96967.66;;;9.36;100.00
11108;BME280;5607;48.302;14.294;2023-03-14T09:13:38;96967.66;;;9.36;100.00
11108;BME280;5607;48.302;14.294;2023-03-14T09:16:25;96978.13;;;9.28;100.00
11108;BME280;5607;48.302;14.294;2023-03-14T09:19:12;96977.44;;;9.34;100.00
11108;BME280;5607;48.302;14.294;2023-03-14T09:21:58;96995.88;;;9.25;100.00
11108;BME280;5607;48.302;14.294;2023-03-14T09:24:45;96974.13;;;9.09;100.00
11108;BME280;5607;48.302;14.294;2023-03-14T09:27:32;96999.69;;;9.14;100.00
11108;BME280;5607;48.302;14.294;2023-03-14T09:30:18;97017.06;;;9.22;100.00
11108;BME280;5607;48.302;14.294;2023-03-14T09:33:05;97013.31;;;9.16;100.00
11108;BME280;5607;48.302;14.294;2023-03-14T09:35:53;96995.81;;;8.94;100.00
11108;BME280;5607;48.302;14.294;2023-03-14T09:38:39;97001.16;;;9.00;100.00
11108;BME280;5607;48.302;14.294;2023-03-14T09:41:48;97006.72;;;8.97;100.00
11108;BME280;5607;48.302;14.294;2023-03-14T09:44:39;97003.94;;;9.07;100.00
11108;BME280;5607;48.302;14.294;2023-03-14T09:47:29;97012.06;;;9.04;100.00
11108;BME280;5607;48.302;14.294;2023-03-14T09:50:16;97004.75;;;9.07;100.00
11108;BME280;5607;48.302;14.294;2023-03-14T09:53:06;97001.16;;;9.08;100.00
11108;BME280;5607;48.302;14.294;2023-03-14T09:55:53;96993.22;;;9.02;100.00
11108;BME280;5607;48.302;14.294;2023-03-14T09:58:44;96989.09;;;9.15;100.00
11108;BME280;5607;48.302;14.294;2023-03-14T10:01:32;96991.94;;;9.29;100.00
11108;BME280;5607;48.302;14.294;2023-03-14T10:04:22;96994.56;;;9.29;100.00
11108;BME280;5607;48.302;14.294;2023-03-14T10:07:15;96995.50;;;9.36;100.00
11108;BME280;5607;48.302;14.294;2023-03-14T10:10:10;96999.56;;;9.38;100.00
11108;BME280;5607;48.302;14.294;2023-03-14T10:12:59;96992.44;;;9.32;100.00
11108;BME280;5607;48.302;14.294;2023-03-14T10:15:54;96994.75;;;9.19;100.00
11108;BME280;5607;48.302;14.294;2023-03-14T10:18:45;97005.09;;;9.35;100.00
11108;BME280;5607;48.302;14.294;2023-03-14T10:24:29;96991.91;;;9.37;100.00
11108;BME280;5607;48.302;14.294;2023-03-14T10:27:28;96985.31;;;9.49;100.00
11108;BME280;5607;48.302;14.294;2023-03-14T10:33:25;96993.13;;;9.49;100.00
11108;BME280;5607;48.302;14.294;2023-03-14T10:36:23;96996.56;;;9.50;100.00
11108;BME280;5607;48.302;14.294;2023-03-14T10:39:29;97000.19;;;9.71;100.00
11108;BME280;5607;48.302;14.294;2023-03-14T10:42:29;97003.09;;;9.77;100.00
11108;BME280;5607;48.302;14.294;2023-03-14T10:48:29;96994.50;;;9.68;100.00
11108;BME280;5607;48.302;14.294;2023-03-14T10:54:13;96997.03;;;9.53;100.00
11108;BME280;5607;48.302;14.294;2023-03-14T10:57:01;96994.84;;;9.65;100.00
11108;BME280;5607;48.302;14.294;2023-03-14T10:59:50;96992.31;;;9.57;100.00
11108;BME280;5607;48.302;14.294;2023-03-14T11:08:57;96979.56;;;9.31;100.00
11108;BME280;5607;48.302;14.294;2023-03-14T11:11:51;96988.63;;;9.43;100.00
11108;BME280;5607;48.302;14.294;2023-03-14T11:14:41;96984.88;;;9.68;100.00
11108;BME280;5607;48.302;14.294;2023-03-14T11:17:48;96993.47;;;9.77;100.00
11108;BME280;5607;48.302;14.294;2023-03-14T11:21:08;96994.84;;;9.65;100.00
11108;BME280;5607;48.302;14.294;2023-03-14T11:27:21;96990.34;;;9.82;100.00
11108;BME280;5607;48.302;14.294;2023-03-14T11:33:22;96987.63;;;9.75;100.00
11108;BME280;5607;48.302;14.294;2023-03-14T11:36:15;96988.25;;;9.77;100.00
11108;BME280;5607;48.302;14.294;2023-03-14T11:39:11;96982.88;;;10.24;100.00
11108;BME280;5607;48.302;14.294;2023-03-14T11:42:00;96997.19;;;10.29;100.00
11108;BME280;5607;48.302;14.294;2023-03-14T11:44:49;97003.72;;;10.24;100.00
11108;BME280;5607;48.302;14.294;2023-03-14T11:47:39;96984.31;;;10.04;100.00
11108;BME280;5607;48.302;14.294;2023-03-14T11:50:30;97002.50;;;10.35;100.00
11108;BME280;5607;48.302;14.294;2023-03-14T11:53:21;97003.78;;;10.39;100.00
11108;BME280;5607;48.302;14.294;2023-03-14T11:56:19;96993.78;;;10.28;100.00
11108;BME280;5607;48.302;14.294;2023-03-14T12:02:37;97003.16;;;10.37;100.00
11108;BME280;5607;48.302;14.294;2023-03-14T12:05:37;97001.91;;;10.48;100.00
11108;BME280;5607;48.302;14.294;2023-03-14T12:08:37;97001.75;;;10.64;100.00
11108;BME280;5607;48.302;14.294;2023-03-14T12:14:22;97014.84;;;10.41;100.00
11108;BME280;5607;48.302;14.294;2023-03-14T12:17:39;97009.25;;;10.82;100.00
11108;BME280;5607;48.302;14.294;2023-03-14T12:20:26;97007.41;;;10.68;100.00
11108;BME280;5607;48.302;14.294;2023-03-14T12:23:15;96999.63;;;10.30;100.00
11108;BME280;5607;48.302;14.294;2023-03-14T12:32:07;96985.38;;;10.70;100.00
11108;BME280;5607;48.302;14.294;2023-03-14T12:35:07;96980.88;;;10.79;100.00
11108;BME280;5607;48.302;14.294;2023-03-14T12:37:54;96980.72;;;10.95;100.00
11108;BME280;5607;48.302;14.294;2023-03-14T12:41:05;96975.38;;;11.03;100.00
11108;BME280;5607;48.302;14.294;2023-03-14T12:50:22;96957.09;;;11.03;100.00
11108;BME280;5607;48.302;14.294;2023-03-14T12:53:18;96952.91;;;11.39;100.00
11108;BME280;5607;48.302;14.294;2023-03-14T12:59:33;96932.41;;;11.42;100.00
11108;BME280;5607;48.302;14.294;2023-03-14T13:02:26;96907.88;;;11.58;100.00
11108;BME280;5607;48.302;14.294;2023-03-14T13:05:17;96939.75;;;11.68;100.00
11108;BME280;5607;48.302;14.294;2023-03-14T13:08:06;96943.69;;;11.43;100.00
11108;BME280;5607;48.302;14.294;2023-03-14T13:10:53;96938.56;;;11.35;100.00
11108;BME280;5607;48.302;14.294;2023-03-14T13:13:58;96938.56;;;11.13;100.00
11108;BME280;5607;48.302;14.294;2023-03-14T13:16:48;96929.41;;;11.24;100.00
11108;BME280;5607;48.302;14.294;2023-03-14T13:19:35;96931.53;;;11.35;100.00
11108;BME280;5607;48.302;14.294;2023-03-14T13:22:27;96924.28;;;11.30;100.00
11108;BME280;5607;48.302;14.294;2023-03-14T13:25:15;96922.13;;;11.19;100.00
11108;BME280;5607;48.302;14.294;2023-03-14T13:28:03;96903.66;;;11.21;100.00
11108;BME280;5607;48.302;14.294;2023-03-14T13:30:55;96918.59;;;11.27;100.00
11108;BME280;5607;48.302;14.294;2023-03-14T13:33:42;96899.50;;;11.26;100.00
11108;BME280;5607;48.302;14.294;2023-03-14T13:36:29;96890.00;;;11.40;100.00
11108;BME280;5607;48.302;14.294;2023-03-14T13:39:21;96860.69;;;11.45;100.00
11108;BME280;5607;48.302;14.294;2023-03-14T13:42:18;96853.97;;;11.14;100.00
11108;BME280;5607;48.302;14.294;2023-03-14T13:45:06;96893.75;;;11.31;100.00
11108;BME280;5607;48.302;14.294;2023-03-14T13:47:52;96906.75;;;11.10;100.00
11108;BME280;5607;48.302;14.294;2023-03-14T13:50:50;96901.56;;;10.95;100.00
11108;BME280;5607;48.302;14.294;2023-03-14T13:53:48;96912.09;;;11.01;100.00
11108;BME280;5607;48.302;14.294;2023-03-14T13:56:37;96914.47;;;10.82;100.00
11108;BME280;5607;48.302;14.294;2023-03-14T13:59:43;96907.44;;;10.82;100.00
11108;BME280;5607;48.302;14.294;2023-03-14T14:02:44;96908.75;;;11.08;100.00
11108;BME280;5607;48.302;14.294;2023-03-14T14:05:31;96900.72;;;11.09;100.00
11108;BME280;5607;48.302;14.294;2023-03-14T14:08:18;96903.22;;;11.17;100.00
11108;BME280;5607;48.302;14.294;2023-03-14T14:11:05;96892.47;;;11.27;100.00
11108;BME280;5607;48.302;14.294;2023-03-14T14:13:52;96898.84;;;11.39;100.00
11108;BME280;5607;48.302;14.294;2023-03-14T14:16:39;96894.91;;;11.28;100.00
11108;BME280;5607;48.302;14.294;2023-03-14T14:19:28;96899.09;;;11.44;100.00
11108;BME280;5607;48.302;14.294;2023-03-14T14:22:17;96895.09;;;11.70;100.00
11108;BME280;5607;48.302;14.294;2023-03-14T14:25:05;96906.19;;;11.72;100.00
11108;BME280;5607;48.302;14.294;2023-03-14T14:27:52;96899.16;;;11.51;100.00
11108;BME280;5607;48.302;14.294;2023-03-14T14:30:39;96901.91;;;11.85;100.00
11108;BME280;5607;48.302;14.294;2023-03-14T14:33:26;96894.31;;;11.91;100.00
11108;BME280;5607;48.302;14.294;2023-03-14T14:39:26;96898.88;;;12.10;100.00
11108;BME280;5607;48.302;14.294;2023-03-14T14:42:17;96894.91;;;12.14;100.00
11108;BME280;5607;48.302;14.294;2023-03-14T14:45:09;96890.91;;;12.18;100.00
11108;BME280;5607;48.302;14.294;2023-03-14T14:48:05;96897.50;;;12.14;100.00
11108;BME280;5607;48.302;14.294;2023-03-14T14:50:59;96890.94;;;11.75;100.00
11108;BME280;5607;48.302;14.294;2023-03-14T14:53:46;96898.28;;;11.65;100.00
11108;BME280;5607;48.302;14.294;2023-03-14T14:56:36;96900.78;;;11.30;100.00
11108;BME280;5607;48.302;14.294;2023-03-14T14:59:25;96892.00;;;11.38;100.00
11108;BME280;5607;48.302;14.294;2023-03-14T15:02:37;96895.84;;;11.42;100.00
11108;BME280;5607;48.302;14.294;2023-03-14T15:05:30;96899.09;;;11.08;100.00
11108;BME280;5607;48.302;14.294;2023-03-14T15:08:24;96902.25;;;11.40;100.00
11108;BME280;5607;48.302;14.294;2023-03-14T15:11:22;96896.28;;;11.24;100.00
11108;BME280;5607;48.302;14.294;2023-03-14T15:14:09;96897.41;;;11.58;100.00
11108;BME280;5607;48.302;14.294;2023-03-14T15:16:55;96893.66;;;11.67;100.00
11108;BME280;5607;48.302;14.294;2023-03-14T15:19:42;96902.81;;;11.78;100.00
11108;BME280;5607;48.302;14.294;2023-03-14T15:22:29;96896.91;;;11.48;100.00
11108;BME280;5607;48.302;14.294;2023-03-14T15:25:15;96901.50;;;11.46;100.00
11108;BME280;5607;48.302;14.294;2023-03-14T15:28:03;96901.06;;;11.42;100.00
11108;BME280;5607;48.302;14.294;2023-03-14T15:30:52;96900.84;;;11.37;100.00
11108;BME280;5607;48.302;14.294;2023-03-14T15:33:39;96899.63;;;11.18;100.00
11108;BME280;5607;48.302;14.294;2023-03-14T15:36:28;96899.63;;;11.18;100.00
11108;BME280;5607;48.302;14.294;2023-03-14T15:39:16;96908.75;;;11.08;100.00
11108;BME280;5607;48.302;14.294;2023-03-14T15:42:03;96912.97;;;11.09;100.00
11108;BME280;5607;48.302;14.294;2023-03-14T15:44:52;96911.94;;;10.88;100.00
11108;BME280;5607;48.302;14.294;2023-03-14T15:47:39;96916.00;;;10.76;100.00
11108;BME280;5607;48.302;14.294;2023-03-14T15:50:26;96923.09;;;10.82;100.00
11108;BME280;5607;48.302;14.294;2023-03-14T15:53:14;96923.69;;;10.99;100.00
11108;BME280;5607;48.302;14.294;2023-03-14T15:56:01;96923.53;;;11.00;100.00